Langdon, KS (67583)

8:07 PM CDT on October 01, 2014 (GMT -0500)
Pratt Industrial | Change Station
CLOSE
Current Station
Airport
Location: Pratt,
Elevation: 1952 ft
Nearby Weather Stations

Elev 1952 ft 37.70 °N, 98.75 °W | Updated 12 minutes ago

Clear
Clear
72 °F
Feels Like 72 °F
N
6
Wind Variable Wind from North

Today
High -- | Low -- °F
--% Chance of Precip.
Yesterday
High -- | Low -- °F
Precip. -- in
7:29 AM 7:16 PM
First Quarter, 53% visible
Pressure 29.73 in
Visibility 10.0 miles
Clouds Clear
Dew Point 63 °F
Humidity 73%
Rainfall 0.04 in
Snow Depth Not available.
UV 0 out of 12
Pollen 1.80 out of 12
Air Quality Not available.
Flu Activity Not available.
METAR KPTT 020055Z AUTO 35005KT 10SM CLR 22/17 A2973 RMK AO2

More Conditions Fewer Conditions

Pressure 29.73 in
Visibility 10.0 miles
Clouds Clear
Dew Point 63 °F
Humidity 73%
Rainfall 0.04 in
Snow Depth Not available.
UV 0 out of 12
Pollen 1.80 out of 12
Air Quality Not available.
Flu Activity Not available.
METAR KPTT 020055Z AUTO 35005KT 10SM CLR 22/17 A2973 RMK AO2

More Conditions Fewer Conditions

10-Day Weather Forecast

Almanac

Astronomy

Oct. 01, 2014 Rise Set
Actual Time 7:29 AM CDT 7:16 PM CDT
Civil Twilight 7:03 AM CDT 7:42 PM CDT
Nautical Twilight 6:32 AM CDT 8:13 PM CDT
Astronomical Twilight 6:01 AM CDT 8:43 PM CDT
Moon 2:26 PM CDT (10/1) No Moon Set
Length of Visible Light 12h 39m
Length of Day
11h 47m
Tomorrow will be 2m 24s shorter.
First Quarter, 53% of the Moon is Illuminated
Today
First Quarter
Oct 8
Full
Oct 15
Last Quarter
Oct 23
New
Oct 30
First Quarter

Today's Extremes

State Highs State Lows

Community

WunderPhotos

Upload Photos

1,758,109 photos uploaded!

WunderBlogs® & News

Nearby

Snow Depth

Station Depth Elevation
No new snow has been reported.

Earthquake Activity

City Distance Mag. Time & Date
Guthrie, Oklahoma 146 miles 3.0 5:15 PM CDT
2014-10-01
Perry, Oklahoma 119 miles 2.8 4:17 PM CDT
2014-10-01
Medford, Oklahoma 76 miles 3.6 1:18 PM CDT
2014-10-01
Harper, Kansas 49 miles 3.3 1:11 AM CDT
2014-10-01
Minimum magnitude displayed is 2.5.

Coastal Water Temperatures

Place Temperature
No Stations Reporting

Nearby Weather Stations